createdAt,value
2022-09-07T00:01:54.112Z,99173.63
2022-09-07T00:04:20.771Z,99161.84
2022-09-07T00:06:47.481Z,99163.34
2022-09-07T00:09:14.247Z,99161.63
2022-09-07T00:11:40.964Z,99160.69
2022-09-07T00:14:07.756Z,99167.13
2022-09-07T00:16:34.623Z,99180.25
2022-09-07T00:19:03.754Z,99233.66
2022-09-07T00:21:31.329Z,99275.38
2022-09-07T00:23:58.183Z,99292.28
2022-09-07T00:26:29.152Z,99285.28
2022-09-07T00:29:03.916Z,99278.00
2022-09-07T00:31:31.744Z,99256.84
2022-09-07T00:34:00.489Z,99274.63
2022-09-07T00:36:27.612Z,99245.47
2022-09-07T00:38:54.119Z,99238.16
2022-09-07T00:41:22.263Z,99234.16
2022-09-07T00:43:57.278Z,99231.38
2022-09-07T00:46:25.808Z,99233.03
2022-09-07T00:48:58.442Z,99215.28
2022-09-07T00:51:28.033Z,99218.72
2022-09-07T00:54:02.911Z,99210.06
2022-09-07T00:56:33.105Z,99206.16
2022-09-07T00:59:00.318Z,99205.28
2022-09-07T01:01:27.549Z,99196.03
2022-09-07T01:03:56.931Z,99188.81
2022-09-07T01:06:28.709Z,99163.28
2022-09-07T01:08:56.420Z,99175.72
2022-09-07T01:11:23.617Z,99166.09
2022-09-07T01:13:52.019Z,99165.28
2022-09-07T01:16:52.842Z,99171.34
2022-09-07T01:20:03.766Z,99154.22
2022-09-07T01:22:48.063Z,99137.63
2022-09-07T01:25:52.159Z,99136.44
2022-09-07T01:28:28.494Z,99123.78
2022-09-07T01:31:34.145Z,99123.53
2022-09-07T01:34:15.486Z,99130.63
2022-09-07T01:37:23.680Z,99137.09
2022-09-07T01:39:57.977Z,99133.72
2022-09-07T01:42:32.593Z,99128.50
2022-09-07T01:45:04.601Z,99125.19
2022-09-07T01:47:41.261Z,99130.03
2022-09-07T01:50:16.705Z,99129.59
2022-09-07T01:52:53.041Z,99120.63
2022-09-07T01:55:31.818Z,99122.09
2022-09-07T01:58:13.694Z,99122.88
2022-09-07T02:00:45.722Z,99117.38
2022-09-07T02:03:18.378Z,99122.25
2022-09-07T02:05:48.024Z,99111.78
2022-09-07T02:08:27.603Z,99110.25
2022-09-07T02:11:04.401Z,99116.56
2022-09-07T02:13:37.465Z,99107.31
2022-09-07T02:16:31.135Z,99106.00
2022-09-07T02:19:05.167Z,99100.31
2022-09-07T02:21:36.528Z,99091.34
2022-09-07T02:24:12.013Z,99094.44
2022-09-07T02:26:41.271Z,99094.94
2022-09-07T02:29:08.342Z,99084.47
2022-09-07T02:31:34.903Z,99076.06
2022-09-07T02:34:01.951Z,99070.38
2022-09-07T02:36:35.207Z,99068.78
2022-09-07T02:39:01.933Z,99058.31
2022-09-07T02:41:37.797Z,99064.09
2022-09-07T02:44:34.680Z,99050.94
2022-09-07T02:47:10.462Z,99050.66
2022-09-07T02:50:01.989Z,99047.13
2022-09-07T02:53:05.797Z,99046.38
2022-09-07T02:56:06.125Z,99041.66
2022-09-07T02:58:36.908Z,99032.25
2022-09-07T03:01:25.178Z,99014.69
2022-09-07T03:04:07.268Z,99008.06
2022-09-07T03:07:03.016Z,99020.59
2022-09-07T03:09:37.204Z,99017.78
2022-09-07T03:12:05.291Z,99023.75
2022-09-07T03:14:34.359Z,99022.72
2022-09-07T03:17:02.214Z,99014.50
2022-09-07T03:19:28.664Z,99021.28
2022-09-07T03:21:55.366Z,99015.94
2022-09-07T03:24:21.855Z,99022.59
2022-09-07T03:26:49.816Z,99021.75
2022-09-07T03:29:16.396Z,99019.03
2022-09-07T03:31:43.389Z,99010.94
2022-09-07T03:34:10.061Z,99004.66
2022-09-07T03:36:36.644Z,99011.47
2022-09-07T03:39:04.549Z,99013.72
2022-09-07T03:41:31.237Z,99009.41
2022-09-07T03:44:02.706Z,99012.19
2022-09-07T03:46:29.413Z,99006.00
2022-09-07T03:48:55.973Z,99007.84
2022-09-07T03:51:22.798Z,99017.47
2022-09-07T03:53:49.344Z,99019.13
2022-09-07T03:56:21.648Z,99022.75
2022-09-07T03:58:49.694Z,99026.94
2022-09-07T04:01:19.099Z,99029.13
2022-09-07T04:03:46.747Z,99032.16
2022-09-07T04:06:13.802Z,99041.50
2022-09-07T04:08:41.163Z,99033.75
2022-09-07T04:11:10.766Z,99033.97
2022-09-07T04:13:37.536Z,99034.53
2022-09-07T04:16:14.272Z,99037.41
2022-09-07T04:18:41.531Z,99034.72
2022-09-07T04:21:08.789Z,99039.75
2022-09-07T04:23:38.202Z,99038.53
2022-09-07T04:26:05.234Z,99034.19
2022-09-07T04:28:32.222Z,99034.72
2022-09-07T04:31:03.146Z,99040.13
2022-09-07T04:33:33.133Z,99035.91
2022-09-07T04:36:01.257Z,99042.50
2022-09-07T04:38:28.806Z,99031.41
2022-09-07T04:41:09.347Z,99037.34
2022-09-07T04:43:37.721Z,99035.16
2022-09-07T04:46:06.199Z,99029.41
2022-09-07T04:48:33.261Z,99023.00
2022-09-07T04:51:07.786Z,99031.94
2022-09-07T04:53:35.896Z,99031.28
2022-09-07T04:56:03.434Z,99032.81
2022-09-07T04:58:30.452Z,99042.91
2022-09-07T05:01:06.073Z,99033.63
2022-09-07T05:03:36.177Z,99053.38
2022-09-07T05:06:04.513Z,99061.25
2022-09-07T05:08:35.539Z,99058.53
2022-09-07T05:11:02.136Z,99059.50
2022-09-07T05:13:29.524Z,99061.03
2022-09-07T05:15:56.112Z,99057.34
2022-09-07T05:18:22.588Z,99060.50
2022-09-07T05:20:49.143Z,99055.78
2022-09-07T05:23:16.652Z,99058.00
2022-09-07T05:25:47.047Z,99052.41
2022-09-07T05:28:17.292Z,99054.41
2022-09-07T05:36:20.873Z,99049.28
2022-09-07T05:38:47.630Z,99050.31
2022-09-07T05:41:17.173Z,99048.78
2022-09-07T05:46:31.175Z,99053.19
2022-09-07T05:48:57.950Z,99055.72
2022-09-07T05:51:24.489Z,99052.88
2022-09-07T05:53:51.333Z,99050.56
2022-09-07T05:56:17.849Z,99047.84
2022-09-07T05:58:48.825Z,99040.69
2022-09-07T06:01:16.191Z,99045.81
2022-09-07T06:03:43.282Z,99039.50
2022-09-07T06:06:13.352Z,99041.66
2022-09-07T06:08:45.207Z,99042.88
2022-09-07T06:11:15.550Z,99059.31
2022-09-07T06:13:42.954Z,99059.81
2022-09-07T06:16:12.430Z,99056.91
2022-09-07T06:18:41.422Z,99071.38
2022-09-07T06:21:11.182Z,99075.41
2022-09-07T06:23:39.865Z,99069.69
2022-09-07T06:26:07.344Z,99074.09
2022-09-07T06:28:36.137Z,99080.44
2022-09-07T06:31:04.741Z,99084.47
2022-09-07T06:33:31.908Z,99077.81
2022-09-07T06:36:00.927Z,99075.19
2022-09-07T06:38:33.668Z,99079.91
2022-09-07T06:43:54.320Z,99097.03
2022-09-07T06:49:07.774Z,99104.75
2022-09-07T06:51:35.473Z,99102.03
2022-09-07T06:56:48.601Z,99103.91
2022-09-07T06:59:16.295Z,99106.56
2022-09-07T07:01:42.845Z,99103.59
2022-09-07T07:04:09.662Z,99095.34
2022-09-07T07:06:38.081Z,99096.81
2022-09-07T07:09:06.577Z,99093.97
2022-09-07T07:11:33.347Z,99095.50
2022-09-07T07:14:00.060Z,99095.63
2022-09-07T07:16:26.702Z,99106.69
2022-09-07T07:18:56.657Z,99107.66
2022-09-07T07:21:23.854Z,99104.56
2022-09-07T07:23:52.165Z,99114.59
2022-09-07T07:26:21.029Z,99104.19
2022-09-07T07:31:26.759Z,99108.66
2022-09-07T07:33:53.805Z,99108.66
2022-09-07T07:36:22.846Z,99106.78
2022-09-07T07:44:17.272Z,99110.94
2022-09-07T07:46:46.688Z,99114.53
2022-09-07T07:49:13.413Z,99111.03
2022-09-07T07:54:26.333Z,99113.25
2022-09-07T07:56:52.917Z,99115.38
2022-09-07T07:59:19.320Z,99110.44
2022-09-07T08:01:45.883Z,99103.78
2022-09-07T08:04:12.464Z,99116.59
2022-09-07T08:06:42.496Z,99109.53
2022-09-07T08:09:09.214Z,99100.53
2022-09-07T08:11:35.647Z,99106.44
2022-09-07T08:14:04.779Z,99106.25
2022-09-07T08:16:31.277Z,99105.19
2022-09-07T08:18:58.260Z,99111.06
2022-09-07T08:21:25.228Z,99108.16
2022-09-07T08:23:51.673Z,99107.31
2022-09-07T08:26:18.174Z,99109.84
2022-09-07T08:28:45.467Z,99114.44
2022-09-07T08:31:14.688Z,99109.44
2022-09-07T08:33:41.624Z,99104.19
2022-09-07T08:36:19.205Z,99104.78
2022-09-07T08:38:46.250Z,99106.00
2022-09-07T08:41:46.788Z,99097.81
2022-09-07T08:44:20.584Z,99107.63
2022-09-07T08:46:54.303Z,99104.69
2022-09-07T08:49:35.749Z,99101.13
2022-09-07T08:52:08.184Z,99096.84
2022-09-07T08:54:36.221Z,99094.25
2022-09-07T09:00:13.895Z,99098.56
2022-09-07T09:02:44.348Z,99092.97
2022-09-07T09:06:00.626Z,99093.16
2022-09-07T09:09:04.782Z,99095.06
2022-09-07T09:12:06.681Z,99100.25
2022-09-07T09:14:47.988Z,99088.88
2022-09-07T09:17:35.529Z,99096.81
2022-09-07T09:20:08.119Z,99094.25
2022-09-07T09:22:35.124Z,99087.75
2022-09-07T09:25:15.705Z,99094.75
2022-09-07T09:27:42.315Z,99081.84
2022-09-07T09:30:14.153Z,99079.59
2022-09-07T09:32:43.215Z,99069.81
2022-09-07T09:35:34.321Z,99064.59
2022-09-07T09:38:03.459Z,99066.00
2022-09-07T09:40:35.042Z,99064.09
2022-09-07T09:43:17.605Z,99071.03
2022-09-07T09:48:37.304Z,99070.25
2022-09-07T09:53:58.326Z,99073.13
2022-09-07T09:56:43.218Z,99058.00
2022-09-07T10:05:28.695Z,99058.06
2022-09-07T10:07:56.694Z,99055.81
2022-09-07T10:10:23.465Z,99056.19
2022-09-07T10:12:54.160Z,99046.00
2022-09-07T10:15:40.857Z,99041.06
2022-09-07T10:18:18.626Z,99040.34
2022-09-07T10:20:45.329Z,99039.41
2022-09-07T10:23:23.849Z,99037.38
2022-09-07T10:25:51.005Z,99042.94
2022-09-07T10:28:21.288Z,99053.00
2022-09-07T10:31:00.976Z,99047.94
2022-09-07T10:36:41.620Z,99052.88
2022-09-07T10:39:14.574Z,99050.91
2022-09-07T10:41:43.813Z,99047.25
2022-09-07T10:44:22.403Z,99032.25
2022-09-07T10:47:19.498Z,99023.22
2022-09-07T10:50:24.248Z,99016.47
2022-09-07T10:53:43.851Z,99011.34
2022-09-07T10:56:15.276Z,99007.66
2022-09-07T10:59:08.405Z,98995.84
2022-09-07T11:01:34.875Z,99002.97
2022-09-07T11:04:13.382Z,99010.31
2022-09-07T11:06:41.543Z,99010.16
2022-09-07T11:09:29.083Z,99003.28
2022-09-07T11:12:27.914Z,99012.44
2022-09-07T11:15:21.001Z,98997.19
2022-09-07T11:18:03.193Z,98996.94
2022-09-07T11:20:35.572Z,99000.41
2022-09-07T11:23:28.489Z,99002.63
2022-09-07T11:26:14.138Z,99006.06
2022-09-07T11:29:29.051Z,98998.91
2022-09-07T11:31:48.980Z,98986.69
2022-09-07T11:34:26.129Z,98985.88
2022-09-07T11:37:02.737Z,98987.69
2022-09-07T11:39:35.441Z,98979.38
2022-09-07T11:45:20.116Z,98969.31
2022-09-07T11:47:54.144Z,98979.78
2022-09-07T11:50:24.353Z,98976.63
2022-09-07T11:53:06.105Z,98972.53
2022-09-07T11:55:38.207Z,98979.28
2022-09-07T11:58:27.755Z,98975.22
2022-09-07T12:01:01.079Z,98980.72
2022-09-07T12:03:45.775Z,98983.31
2022-09-07T12:06:41.596Z,98978.66
2022-09-07T12:09:34.235Z,98976.38
2022-09-07T12:12:49.293Z,98979.44
2022-09-07T12:15:36.028Z,98982.31
2022-09-07T12:18:05.511Z,98985.63
2022-09-07T12:20:44.335Z,98977.66
2022-09-07T12:23:16.861Z,98982.38
2022-09-07T12:25:45.711Z,98986.94
2022-09-07T12:28:35.814Z,98973.47
2022-09-07T12:31:05.253Z,98970.56
2022-09-07T12:33:35.513Z,98960.66
2022-09-07T12:36:23.164Z,98964.72
2022-09-07T12:39:21.182Z,98950.19
2022-09-07T12:42:31.753Z,98951.88
2022-09-07T12:44:37.948Z,98941.59
2022-09-07T12:47:10.555Z,98940.72
2022-09-07T12:49:45.947Z,98937.06
2022-09-07T12:52:21.538Z,98937.16
2022-09-07T12:55:26.021Z,98938.59
2022-09-07T12:57:55.196Z,98936.81
2022-09-07T13:00:56.450Z,98933.38
2022-09-07T13:03:51.374Z,98935.75
2022-09-07T13:09:41.001Z,98938.09
2022-09-07T13:15:32.339Z,98926.06
2022-09-07T13:17:59.454Z,98927.72
2022-09-07T13:20:30.309Z,98924.09
2022-09-07T13:23:08.829Z,98924.22
2022-09-07T13:25:42.770Z,98927.91
2022-09-07T13:28:16.550Z,98917.56
2022-09-07T13:30:53.407Z,98910.13
2022-09-07T13:33:43.883Z,98908.69
2022-09-07T13:36:36.134Z,98906.63
2022-09-07T13:39:09.022Z,98910.44
2022-09-07T13:41:42.175Z,98911.59
2022-09-07T13:44:25.016Z,98907.44
2022-09-07T13:47:10.943Z,98898.78
2022-09-07T13:49:56.023Z,98908.72
2022-09-07T13:52:27.555Z,98897.31
2022-09-07T13:54:59.976Z,98907.25
2022-09-07T13:57:46.770Z,98908.03
2022-09-07T14:00:15.385Z,98906.56
2022-09-07T14:02:42.155Z,98899.22
2022-09-07T14:05:11.769Z,98904.41
2022-09-07T14:07:45.816Z,98879.22
2022-09-07T14:10:19.589Z,98891.16
2022-09-07T14:12:51.934Z,98894.09
2022-09-07T14:15:27.338Z,98879.50
2022-09-07T14:18:04.734Z,98889.13
2022-09-07T14:20:32.417Z,98898.59
2022-09-07T14:22:59.408Z,98881.00
2022-09-07T14:25:26.432Z,98880.28
2022-09-07T14:27:53.120Z,98894.59
2022-09-07T14:30:19.428Z,98894.38
2022-09-07T14:32:52.607Z,98897.13
2022-09-07T14:35:22.173Z,98868.66
2022-09-07T14:37:49.525Z,98872.72
2022-09-07T14:40:23.846Z,98870.22
2022-09-07T14:42:52.201Z,98860.06
2022-09-07T14:45:18.601Z,98866.88
2022-09-07T14:47:47.201Z,98871.63
2022-09-07T14:50:24.532Z,98862.00
2022-09-07T14:55:42.704Z,98861.09
2022-09-07T14:58:15.178Z,98850.41
2022-09-07T15:01:37.273Z,98847.66
2022-09-07T15:03:57.086Z,98838.53
2022-09-07T15:09:36.843Z,98835.28
2022-09-07T15:12:15.454Z,98835.59
2022-09-07T15:14:42.079Z,98833.31
2022-09-07T15:17:48.314Z,98823.19
2022-09-07T15:20:37.521Z,98825.03
2022-09-07T15:23:15.525Z,98816.81
2022-09-07T15:25:48.229Z,98822.72
2022-09-07T15:33:59.955Z,98836.09
2022-09-07T15:36:26.887Z,98832.97
2022-09-07T15:39:01.051Z,98831.09
2022-09-07T15:41:29.220Z,98831.50
2022-09-07T15:43:56.856Z,98830.66
2022-09-07T15:46:25.074Z,98822.59
2022-09-07T15:48:53.977Z,98816.59
2022-09-07T15:54:13.802Z,98808.84
2022-09-07T15:57:48.109Z,98822.34
2022-09-07T15:59:31.118Z,98828.63
2022-09-07T16:01:58.506Z,98822.03
2022-09-07T16:04:25.374Z,98816.16
2022-09-07T16:06:52.035Z,98817.53
2022-09-07T16:09:21.692Z,98826.69
2022-09-07T16:11:50.146Z,98822.22
2022-09-07T16:14:17.718Z,98809.34
2022-09-07T16:19:34.999Z,98809.84
2022-09-07T16:22:03.060Z,98819.84
2022-09-07T16:24:29.782Z,98810.59
2022-09-07T16:26:56.300Z,98811.72
2022-09-07T16:29:22.667Z,98804.50
2022-09-07T16:34:35.499Z,98805.06
2022-09-07T16:37:02.100Z,98811.22
2022-09-07T16:39:32.054Z,98810.31
2022-09-07T16:42:00.081Z,98813.13
2022-09-07T16:44:26.597Z,98813.31
2022-09-07T16:46:53.158Z,98814.38
2022-09-07T16:49:19.629Z,98811.75
2022-09-07T16:51:46.161Z,98807.59
2022-09-07T16:54:13.818Z,98805.97
2022-09-07T16:56:40.425Z,98818.72
2022-09-07T16:59:09.583Z,98814.81
2022-09-07T17:01:40.309Z,98801.41
2022-09-07T17:04:10.858Z,98804.59
2022-09-07T17:06:38.652Z,98800.13
2022-09-07T17:09:05.460Z,98790.22
2022-09-07T17:11:34.743Z,98794.91
2022-09-07T17:14:01.836Z,98792.16
2022-09-07T17:16:34.397Z,98798.97
2022-09-07T17:21:51.889Z,98795.16
2022-09-07T17:24:19.766Z,98805.41
2022-09-07T17:26:46.490Z,98802.38
2022-09-07T17:29:13.461Z,98804.53
2022-09-07T17:34:26.588Z,98801.06
2022-09-07T17:36:53.163Z,98798.28
2022-09-07T17:39:20.030Z,98800.47
2022-09-07T17:41:48.596Z,98805.31
2022-09-07T17:44:15.546Z,98797.06
2022-09-07T17:46:42.321Z,98804.09
2022-09-07T17:49:12.060Z,98802.75
2022-09-07T17:51:38.787Z,98797.47
2022-09-07T17:54:10.732Z,98807.66
2022-09-07T17:56:38.908Z,98813.88
2022-09-07T18:01:53.944Z,98809.44
2022-09-07T18:04:21.516Z,98814.44
2022-09-07T18:06:48.373Z,98813.97
2022-09-07T18:09:15.704Z,98821.69
2022-09-07T18:11:45.560Z,98827.88
2022-09-07T18:14:14.238Z,98825.69
2022-09-07T18:16:41.256Z,98829.56
2022-09-07T18:19:08.575Z,98830.50
2022-09-07T18:21:37.743Z,98829.94
2022-09-07T18:24:13.493Z,98831.66
2022-09-07T18:26:40.773Z,98828.97
2022-09-07T18:29:18.717Z,98828.13
2022-09-07T18:31:54.858Z,98828.97
2022-09-07T18:34:21.597Z,98827.28
2022-09-07T18:36:48.190Z,98823.06
2022-09-07T18:39:15.026Z,98823.69
2022-09-07T18:41:42.047Z,98825.16
2022-09-07T18:46:55.481Z,98825.13
2022-09-07T18:49:21.989Z,98831.41
2022-09-07T18:54:34.795Z,98826.28
2022-09-07T18:57:01.233Z,98829.03
2022-09-07T18:59:29.789Z,98815.84
2022-09-07T19:02:01.336Z,98809.38
2022-09-07T19:07:17.663Z,98810.91
2022-09-07T19:09:44.180Z,98810.28
2022-09-07T19:12:10.556Z,98813.28
2022-09-07T19:14:37.088Z,98816.84
2022-09-07T19:17:03.563Z,98813.09
2022-09-07T19:19:30.173Z,98807.88
2022-09-07T19:21:57.718Z,98806.22
2022-09-07T19:24:25.622Z,98815.88
2022-09-07T19:26:55.728Z,98824.28
2022-09-07T19:29:24.586Z,98821.56
2022-09-07T19:32:04.862Z,98825.16
2022-09-07T19:34:32.832Z,98821.63
2022-09-07T19:36:59.411Z,98818.91
2022-09-07T19:39:25.797Z,98818.94
2022-09-07T19:41:52.392Z,98808.06
2022-09-07T19:44:18.770Z,98804.28
2022-09-07T19:46:45.243Z,98805.09
2022-09-07T19:49:12.252Z,98797.56
2022-09-07T19:51:40.150Z,98804.69
2022-09-07T19:54:06.814Z,98794.66
2022-09-07T19:56:33.269Z,98791.72
2022-09-07T19:58:59.660Z,98790.06
2022-09-07T20:01:28.209Z,98782.13
2022-09-07T20:04:19.645Z,98787.16
2022-09-07T20:06:48.029Z,98782.53
2022-09-07T20:09:14.554Z,98774.59
2022-09-07T20:11:46.082Z,98769.38
2022-09-07T20:14:14.009Z,98772.94
2022-09-07T20:16:41.503Z,98777.31
2022-09-07T20:19:08.508Z,98777.09
2022-09-07T20:21:36.850Z,98777.72
2022-09-07T20:24:04.438Z,98768.72
2022-09-07T20:26:32.219Z,98769.78
2022-09-07T20:29:23.386Z,98773.66
2022-09-07T20:31:46.198Z,98768.84
2022-09-07T20:34:13.098Z,98777.19
2022-09-07T20:36:39.957Z,98780.69
2022-09-07T20:39:06.601Z,98768.97
2022-09-07T20:41:33.962Z,98781.09
2022-09-07T20:44:03.590Z,98781.06
2022-09-07T20:46:30.764Z,98777.22
2022-09-07T20:48:58.751Z,98775.34
2022-09-07T20:51:25.643Z,98762.19
2022-09-07T20:53:53.561Z,98762.13
2022-09-07T20:56:25.743Z,98772.91
2022-09-07T20:59:00.499Z,98768.94
2022-09-07T21:01:29.647Z,98784.09
2022-09-07T21:03:58.334Z,98778.88
2022-09-07T21:06:26.180Z,98780.53
2022-09-07T21:08:53.060Z,98785.31
2022-09-07T21:11:22.377Z,98782.81
2022-09-07T21:13:56.033Z,98782.75
2022-09-07T21:16:22.907Z,98775.25
2022-09-07T21:18:54.363Z,98775.19
2022-09-07T21:21:21.805Z,98773.50
2022-09-07T21:23:48.546Z,98766.56
2022-09-07T21:26:19.713Z,98767.97
2022-09-07T21:28:46.257Z,98766.28
2022-09-07T21:31:12.767Z,98773.53
2022-09-07T21:33:39.312Z,98776.22
2022-09-07T21:36:10.843Z,98790.03
2022-09-07T21:38:38.872Z,98788.28
2022-09-07T21:41:13.648Z,98788.72
2022-09-07T21:43:41.698Z,98794.56
2022-09-07T21:46:16.630Z,98798.91
2022-09-07T21:48:43.755Z,98804.97
2022-09-07T21:51:12.651Z,98804.34
2022-09-07T21:53:39.076Z,98802.06
2022-09-07T21:56:08.511Z,98810.38
2022-09-07T21:58:35.797Z,98808.53
2022-09-07T22:01:14.319Z,98800.47
2022-09-07T22:03:41.077Z,98789.69
2022-09-07T22:06:08.879Z,98800.56
2022-09-07T22:08:37.388Z,98796.81
2022-09-07T22:11:09.395Z,98793.09
2022-09-07T22:13:36.393Z,98786.63
2022-09-07T22:16:03.868Z,98779.78
2022-09-07T22:18:30.950Z,98790.63
2022-09-07T22:21:07.600Z,98777.06
2022-09-07T22:23:37.291Z,98785.78
2022-09-07T22:26:03.863Z,98783.09
2022-09-07T22:28:31.505Z,98781.38
2022-09-07T22:31:18.742Z,98788.84
2022-09-07T22:33:46.451Z,98785.50
2022-09-07T22:36:16.172Z,98784.66
2022-09-07T22:38:44.335Z,98771.94
2022-09-07T22:41:13.811Z,98772.56
2022-09-07T22:43:40.943Z,98769.28
2022-09-07T22:46:07.886Z,98758.25
2022-09-07T22:48:34.441Z,98755.31
2022-09-07T22:51:03.960Z,98747.69
2022-09-07T22:53:32.907Z,98743.22
2022-09-07T22:56:00.176Z,98750.31
2022-09-07T22:58:28.944Z,98748.19
2022-09-07T23:01:01.211Z,98749.84
2022-09-07T23:03:29.261Z,98742.78
2022-09-07T23:05:56.980Z,98738.19
2022-09-07T23:08:25.237Z,98741.72
2022-09-07T23:10:52.902Z,98733.66
2022-09-07T23:13:20.522Z,98726.97
2022-09-07T23:15:48.091Z,98728.00
2022-09-07T23:18:19.868Z,98721.94
2022-09-07T23:20:46.556Z,98728.59
2022-09-07T23:23:15.984Z,98732.72
2022-09-07T23:25:42.842Z,98729.69
2022-09-07T23:28:12.265Z,98727.00
2022-09-07T23:30:42.408Z,98728.00
2022-09-07T23:33:08.779Z,98721.50
2022-09-07T23:35:35.270Z,98715.03
2022-09-07T23:38:01.757Z,98718.78
2022-09-07T23:40:30.277Z,98720.50
2022-09-07T23:42:56.786Z,98714.44
2022-09-07T23:45:23.641Z,98711.75
2022-09-07T23:47:50.277Z,98707.34
2022-09-07T23:50:18.079Z,98699.41
2022-09-07T23:52:44.568Z,98699.16
2022-09-07T23:55:11.747Z,98704.56
2022-09-07T23:57:38.622Z,98693.22
